Time;durP1;ratioP1;P1;durP2;ratioP2;P2;SDS_P1;SDS_P2;PMS_P1;PMS_P2;Temp;Humidity;BMP_temperature;BMP_pressure;BME280_temperature;BME280_humidity;BME280_pressure;Samples;Min_cycle;Max_cycle;Signal;HPM_P1;HPM_P2
2021/06/06 00:01:07;;;;;;;;;;;;;;;27.17;28.75;94661.97;5131933;27;20314;-43
2021/06/06 00:03:35;;;;;;;;;;;;;;;26.97;29.13;94656.97;5117609;28;19923;-44
2021/06/06 00:06:09;;;;;;;;;;;;;;;26.59;29.67;94655.03;5116961;28;19974;-43
2021/06/06 00:08:37;;;;;;;;;;;;;;;26.81;29.17;94664.63;5100402;28;19947;-44
2021/06/06 00:11:24;;;;;;;;;;;;;;;26.97;28.61;94661.56;5107966;27;19919;-43
2021/06/06 00:13:51;;;;;;;;;;;;;;;26.62;29.34;94656.94;5121104;27;19916;-43
2021/06/06 00:16:29;;;;;;;;;;;;;;;26.64;29.50;94657.34;5116791;28;19926;-42
2021/06/06 00:18:56;;;;;;;;;;;;;;;27.14;28.87;94649.34;5116240;28;19920;-43
2021/06/06 00:21:23;;;;;;;;;;;;;;;27.36;28.47;94650.06;5117023;28;19920;-42
2021/06/06 00:23:50;;;;;;;;;;;;;;;27.60;28.21;94650.03;5117246;28;19920;-42
2021/06/06 00:26:17;;;;;;;;;;;;;;;26.92;28.88;94649.31;5098471;28;19924;-43
2021/06/06 00:28:45;;;;;;;;;;;;;;;27.30;28.18;94647.75;5116836;28;19934;-43
2021/06/06 00:31:12;;;;;;;;;;;;;;;27.39;28.57;94652.75;5116476;28;19946;-42
2021/06/06 00:33:39;;;;;;;;;;;;;;;27.21;28.52;94649.31;5098919;28;19915;-42
2021/06/06 00:36:07;;;;;;;;;;;;;;;27.46;27.99;94650.03;5115986;28;19920;-43
2021/06/06 00:38:34;;;;;;;;;;;;;;;26.87;29.10;94651.59;5116462;28;19922;-43
2021/06/06 00:41:02;;;;;;;;;;;;;;;26.92;28.83;94649.31;5116270;28;19920;-43
2021/06/06 00:43:30;;;;;;;;;;;;;;;27.33;28.19;94646.25;5111225;27;19924;-44
2021/06/06 00:46:00;;;;;;;;;;;;;;;26.76;28.89;94648.91;5114368;28;19923;-42
2021/06/06 00:48:28;;;;;;;;;;;;;;;26.93;28.66;94645.47;5098505;28;19920;-43
2021/06/06 00:51:04;;;;;;;;;;;;;;;27.08;28.42;94650.88;5116092;28;19926;-42
2021/06/06 00:53:38;;;;;;;;;;;;;;;27.00;28.13;94645.50;5098523;28;20314;-42
2021/06/06 00:56:10;;;;;;;;;;;;;;;27.06;28.15;94642.41;5081495;28;19939;-43
2021/06/06 00:58:40;;;;;;;;;;;;;;;26.60;28.51;94645.84;5098210;28;19916;-42
2021/06/06 01:01:07;;;;;;;;;;;;;;;26.76;28.26;94651.59;5098087;28;19919;-42
2021/06/06 01:03:34;;;;;;;;;;;;;;;26.59;28.39;94652.34;5116189;28;19915;-42
2021/06/06 01:06:07;;;;;;;;;;;;;;;26.69;28.16;94652.34;5115620;28;20307;-42
2021/06/06 01:08:36;;;;;;;;;;;;;;;26.55;28.28;94647.00;5115984;28;20315;-43
2021/06/06 01:11:08;;;;;;;;;;;;;;;27.27;27.40;94642.41;5081099;28;20242;-42
2021/06/06 01:13:45;;;;;;;;;;;;;;;26.45;28.58;94641.59;5107755;28;20234;-43
2021/06/06 01:16:18;;;;;;;;;;;;;;;26.81;28.22;94643.19;5096037;28;19923;-42
2021/06/06 01:18:47;;;;;;;;;;;;;;;26.78;28.00;94637.78;5081190;28;19916;-43
2021/06/06 01:21:14;;;;;;;;;;;;;;;26.33;29.11;94640.78;5115481;28;19919;-43
2021/06/06 01:23:58;;;;;;;;;;;;;;;26.39;28.90;94639.28;5098021;28;19916;-43
2021/06/06 01:26:33;;;;;;;;;;;;;;;26.56;28.75;94637.03;5081248;28;19927;-43
2021/06/06 01:29:11;;;;;;;;;;;;;;;26.46;28.65;94627.03;5098213;28;19923;-42
2021/06/06 01:31:40;;;;;;;;;;;;;;;26.24;28.76;94621.63;5080024;28;19923;-42
2021/06/06 01:34:08;;;;;;;;;;;;;;;26.49;29.07;94631.66;5097534;28;19924;-42
2021/06/06 01:36:36;;;;;;;;;;;;;;;26.10;29.19;94622.34;5080595;28;19946;-43
2021/06/06 01:39:06;;;;;;;;;;;;;;;26.12;29.64;94624.66;5098058;28;19919;-43
2021/06/06 01:41:37;;;;;;;;;;;;;;;26.09;29.75;94620.06;5097338;28;19919;-43
2021/06/06 01:44:09;;;;;;;;;;;;;;;26.19;29.73;94611.28;5111929;28;19926;-43
2021/06/06 01:46:38;;;;;;;;;;;;;;;26.51;29.20;94613.25;5110519;28;19915;-42
2021/06/06 01:49:08;;;;;;;;;;;;;;;26.39;29.58;94612.50;5115728;28;19919;-43
2021/06/06 01:51:47;;;;;;;;;;;;;;;26.11;30.20;94601.69;5115331;28;20296;-43
2021/06/06 01:54:17;;;;;;;;;;;;;;;26.53;29.34;94600.25;5097362;28;20341;-43
2021/06/06 01:56:45;;;;;;;;;;;;;;;26.38;29.60;94597.56;5097138;28;19919;-42
2021/06/06 01:59:24;;;;;;;;;;;;;;;26.00;30.36;94590.16;5080909;28;19916;-43
2021/06/06 02:01:53;;;;;;;;;;;;;;;26.51;29.96;94597.19;5089313;28;19923;-42
2021/06/06 02:04:20;;;;;;;;;;;;;;;26.06;30.07;94589.44;5100994;28;19927;-42
2021/06/06 02:06:49;;;;;;;;;;;;;;;25.79;30.53;94596.25;5117455;28;19919;-42
2021/06/06 02:09:23;;;;;;;;;;;;;;;25.94;30.31;94597.03;5101736;28;19919;-41
2021/06/06 02:12:04;;;;;;;;;;;;;;;25.86;30.21;94601.63;5101290;28;19927;-42
2021/06/06 02:14:43;;;;;;;;;;;;;;;25.85;30.13;94588.59;5097144;28;19916;-42
2021/06/06 02:17:16;;;;;;;;;;;;;;;26.00;29.56;94590.16;5114874;28;19919;-43
2021/06/06 02:19:59;;;;;;;;;;;;;;;25.84;30.07;94603.13;5097519;28;19920;-41
2021/06/06 02:22:30;;;;;;;;;;;;;;;25.96;30.13;94595.53;5114916;28;20397;-43
2021/06/06 02:24:58;;;;;;;;;;;;;;;25.85;29.92;94602.00;5115195;28;19927;-46
2021/06/06 02:27:46;;;;;;;;;;;;;;;25.74;30.17;94594.66;5080315;28;19927;-42
2021/06/06 02:30:13;;;;;;;;;;;;;;;25.38;31.07;94592.97;5097498;28;20262;-43
2021/06/06 02:32:55;;;;;;;;;;;;;;;25.96;30.11;94589.41;5097465;28;19916;-43
2021/06/06 02:35:21;;;;;;;;;;;;;;;26.26;29.73;94595.19;5115380;28;19920;-42
2021/06/06 02:37:54;;;;;;;;;;;;;;;25.25;31.19;94594.44;5097127;28;19916;-42
2021/06/06 02:40:44;;;;;;;;;;;;;;;25.30;31.18;94588.72;5080786;28;19950;-42
2021/06/06 02:43:24;;;;;;;;;;;;;;;25.68;30.41;94590.84;5099437;28;19924;-42
2021/06/06 02:45:52;;;;;;;;;;;;;;;25.30;31.05;94586.03;5097295;28;19920;-42
2021/06/06 02:48:22;;;;;;;;;;;;;;;25.37;31.44;94591.44;5117370;28;19923;-47
2021/06/06 02:50:51;;;;;;;;;;;;;;;25.33;31.23;94583.38;5119053;28;19922;-42
2021/06/06 02:53:26;;;;;;;;;;;;;;;25.43;30.73;94576.53;5100906;28;19916;-43
2021/06/06 02:55:56;;;;;;;;;;;;;;;25.56;30.68;94577.00;5084183;28;19949;-42
2021/06/06 02:58:24;;;;;;;;;;;;;;;25.23;31.31;94586.00;5118409;28;19924;-42
2021/06/06 03:00:57;;;;;;;;;;;;;;;25.70;30.45;94583.19;5101059;28;20223;-42
2021/06/06 03:03:27;;;;;;;;;;;;;;;25.25;31.05;94589.09;5101186;28;19950;-43
2021/06/06 03:05:59;;;;;;;;;;;;;;;25.32;30.88;94595.22;5100449;28;19920;-43
2021/06/06 03:08:30;;;;;;;;;;;;;;;25.70;30.15;94593.91;5084529;28;19915;-42
2021/06/06 03:10:58;;;;;;;;;;;;;;;25.67;30.25;94594.66;5100724;28;19923;-43
2021/06/06 03:13:31;;;;;;;;;;;;;;;25.60;30.16;94599.94;5092394;28;19916;-42
2021/06/06 03:15:59;;;;;;;;;;;;;;;25.70;30.28;94601.94;5117305;28;19982;-43
2021/06/06 03:18:32;;;;;;;;;;;;;;;25.47;30.39;94609.44;5118524;28;19915;-42
2021/06/06 03:21:17;;;;;;;;;;;;;;;25.59;30.39;94603.78;5118422;28;20298;-42
2021/06/06 03:23:45;;;;;;;;;;;;;;;25.84;30.03;94608.50;5118579;28;19929;-42
2021/06/06 03:26:12;;;;;;;;;;;;;;;25.96;29.82;94600.88;5099621;28;20330;-42
2021/06/06 03:28:51;;;;;;;;;;;;;;;25.99;29.68;94591.31;5102108;28;20333;-42
2021/06/06 03:31:19;;;;;;;;;;;;;;;25.67;30.27;94593.88;5099972;28;19920;-43
2021/06/06 03:33:58;;;;;;;;;;;;;;;25.85;29.54;94588.59;5100192;28;19923;-43
2021/06/06 03:36:48;;;;;;;;;;;;;;;25.59;30.43;94586.94;5109568;28;19928;-43
2021/06/06 03:39:31;;;;;;;;;;;;;;;26.06;29.86;94583.31;5100172;28;19916;-43
2021/06/06 03:42:02;;;;;;;;;;;;;;;25.92;30.25;94591.31;5118122;27;20230;-43
2021/06/06 03:44:30;;;;;;;;;;;;;;;25.65;30.78;94591.56;5137805;27;19923;-41
2021/06/06 03:46:58;;;;;;;;;;;;;;;25.93;29.87;94582.13;5113185;28;20314;-43
2021/06/06 03:49:25;;;;;;;;;;;;;;;26.42;29.30;94598.31;5100198;28;19920;-42
2021/06/06 03:51:53;;;;;;;;;;;;;;;26.63;29.20;94600.25;5084790;28;19919;-43
2021/06/06 03:54:23;;;;;;;;;;;;;;;26.27;29.58;94590.59;5099015;28;19919;-43
2021/06/06 03:56:50;;;;;;;;;;;;;;;26.13;29.75;94594.03;5117191;28;19923;-43
2021/06/06 03:59:18;;;;;;;;;;;;;;;26.27;29.69;94594.06;5099812;28;19916;-42
2021/06/06 04:01:45;;;;;;;;;;;;;;;26.12;29.68;94592.50;5099522;28;20001;-42
2021/06/06 04:04:13;;;;;;;;;;;;;;;25.80;30.31;94593.19;5099453;28;20242;-42
2021/06/06 04:06:41;;;;;;;;;;;;;;;26.03;30.29;94594.78;5099302;28;19916;-42
2021/06/06 04:09:09;;;;;;;;;;;;;;;25.47;31.04;94596.06;5099458;28;19916;-42
2021/06/06 04:11:36;;;;;;;;;;;;;;;25.56;30.90;94596.50;5117157;28;19927;-43
2021/06/06 04:14:09;;;;;;;;;;;;;;;25.93;30.25;94584.78;5113803;28;19919;-44
2021/06/06 04:16:39;;;;;;;;;;;;;;;25.58;31.49;94596.13;5097905;28;19934;-43
2021/06/06 04:19:07;;;;;;;;;;;;;;;26.51;29.15;94597.94;5117342;28;20318;-42
2021/06/06 04:21:37;;;;;;;;;;;;;;;25.77;30.24;94599.31;5117247;28;19920;-42
2021/06/06 04:24:05;;;;;;;;;;;;;;;25.76;31.96;94599.66;5117030;28;19927;-42
2021/06/06 04:26:33;;;;;;;;;;;;;;;26.07;31.39;94590.97;5116576;28;19919;-42
2021/06/06 04:29:01;;;;;;;;;;;;;;;25.80;32.28;94601.22;5117140;28;19931;-43
2021/06/06 04:31:32;;;;;;;;;;;;;;;25.68;32.27;94606.91;5098957;28;19916;-43
2021/06/06 04:34:06;;;;;;;;;;;;;;;26.35;31.53;94606.38;5099166;28;20313;-43
2021/06/06 04:36:35;;;;;;;;;;;;;;;26.37;30.58;94609.44;5098830;28;19919;-44
2021/06/06 04:39:04;;;;;;;;;;;;;;;26.08;31.45;94607.81;5116947;28;19923;-42
2021/06/06 04:41:36;;;;;;;;;;;;;;;25.79;31.58;94606.94;5098690;28;19916;-43
2021/06/06 04:44:03;;;;;;;;;;;;;;;25.87;31.34;94615.78;5134151;27;19923;-42
2021/06/06 04:46:34;;;;;;;;;;;;;;;26.15;31.57;94617.78;5118321;27;19915;-42
2021/06/06 04:49:03;;;;;;;;;;;;;;;26.86;29.90;94607.94;5099060;28;19916;-43
2021/06/06 04:51:31;;;;;;;;;;;;;;;26.19;30.79;94613.19;5116550;28;19923;-43
2021/06/06 04:54:20;;;;;;;;;;;;;;;26.65;30.76;94624.00;5109204;28;19931;-42
2021/06/06 04:56:47;;;;;;;;;;;;;;;26.98;29.92;94620.16;5080701;28;20311;-43
2021/06/06 04:59:22;;;;;;;;;;;;;;;26.99;30.39;94622.50;5098692;28;19957;-43
2021/06/06 05:01:49;;;;;;;;;;;;;;;27.66;28.35;94615.50;5098196;28;19946;-43
2021/06/06 05:04:17;;;;;;;;;;;;;;;27.45;28.58;94618.97;5099694;28;19924;-44
2021/06/06 05:06:45;;;;;;;;;;;;;;;27.17;29.43;94608.31;5096778;28;19916;-44
2021/06/06 05:09:17;;;;;;;;;;;;;;;27.47;28.91;94607.84;5098736;22;19928;-54
2021/06/06 05:11:49;;;;;;;;;;;;;;;27.28;29.30;94606.34;5097477;28;20238;-53
2021/06/06 05:14:18;;;;;;;;;;;;;;;27.26;29.03;94603.31;5113406;27;19920;-49
2021/06/06 05:16:47;;;;;;;;;;;;;;;27.96;27.63;94606.94;5118258;27;19919;-49
2021/06/06 05:19:15;;;;;;;;;;;;;;;27.46;28.83;94612.47;5136353;27;19915;-46
2021/06/06 05:21:44;;;;;;;;;;;;;;;27.76;28.17;94613.94;5102213;28;19924;-46
2021/06/06 05:24:11;;;;;;;;;;;;;;;27.41;28.78;94604.03;5114660;28;20309;-48
2021/06/06 05:26:38;;;;;;;;;;;;;;;27.83;28.67;94600.47;5113688;28;19924;-53
2021/06/06 05:29:06;;;;;;;;;;;;;;;28.19;28.09;94601.84;5117909;27;19916;-54
2021/06/06 05:31:33;;;;;;;;;;;;;;;28.11;28.19;94596.91;5108218;28;19919;-51
2021/06/06 05:34:00;;;;;;;;;;;;;;;28.44;27.81;94595.56;5115802;28;19915;-49
2021/06/06 05:36:27;;;;;;;;;;;;;;;28.38;27.67;94589.09;5123856;27;20236;-51
2021/06/06 05:38:54;;;;;;;;;;;;;;;28.36;27.27;94586.00;5114813;28;20318;-51
2021/06/06 05:41:21;;;;;;;;;;;;;;;28.93;26.47;94588.31;5131298;27;19930;-52
2021/06/06 05:43:48;;;;;;;;;;;;;;;28.76;27.95;94587.25;5099795;28;20256;-53
2021/06/06 05:46:16;;;;;;;;;;;;;;;28.73;27.20;94594.19;5104359;28;19923;-51
2021/06/06 05:48:43;;;;;;;;;;;;;;;28.94;27.42;94589.84;5097281;28;20278;-51
2021/06/06 05:51:10;;;;;;;;;;;;;;;29.21;26.61;94588.03;5115036;28;19915;-50
2021/06/06 05:53:55;;;;;;;;;;;;;;;29.28;26.47;94587.97;5115521;28;19919;-49
2021/06/06 05:56:23;;;;;;;;;;;;;;;29.36;26.28;94589.41;5115237;28;20416;-52
2021/06/06 05:58:51;;;;;;;;;;;;;;;29.15;26.72;94597.72;5114998;28;20258;-49
2021/06/06 06:01:19;;;;;;;;;;;;;;;29.43;27.14;94592.03;5115053;28;19924;-53
2021/06/06 06:03:46;;;;;;;;;;;;;;;30.11;25.74;94596.66;5099787;28;19919;-54
2021/06/06 06:06:14;;;;;;;;;;;;;;;29.57;27.16;94593.06;5097659;28;19923;-51
2021/06/06 06:08:42;;;;;;;;;;;;;;;30.48;25.97;94593.06;5114169;28;19924;-52
2021/06/06 06:11:12;;;;;;;;;;;;;;;30.27;26.31;94590.69;5072099;28;19923;-53
2021/06/06 06:13:39;;;;;;;;;;;;;;;30.03;26.16;94593.31;5095247;28;19927;-56
2021/06/06 06:16:06;;;;;;;;;;;;;;;30.14;26.19;94587.00;5106452;28;20241;-52
2021/06/06 06:18:34;;;;;;;;;;;;;;;30.54;25.50;94586.03;5100824;28;20266;-53
2021/06/06 06:21:01;;;;;;;;;;;;;;;31.09;25.70;94590.19;5119048;28;20274;-56
2021/06/06 06:23:29;;;;;;;;;;;;;;;30.79;25.51;94584.91;5116378;28;19926;-51
2021/06/06 06:25:56;;;;;;;;;;;;;;;31.80;24.81;94582.75;5103907;28;19916;-51
2021/06/06 06:28:23;;;;;;;;;;;;;;;31.31;24.76;94589.84;5104060;28;19917;-52
2021/06/06 06:30:55;;;;;;;;;;;;;;;30.83;26.04;94585.63;5107223;28;19915;-52
2021/06/06 06:33:33;;;;;;;;;;;;;;;31.48;24.57;94586.03;5108251;28;19924;-52
2021/06/06 06:36:01;;;;;;;;;;;;;;;31.75;24.62;94589.41;5112094;28;19919;-54
2021/06/06 06:38:30;;;;;;;;;;;;;;;31.59;25.21;94592.00;5107111;28;19923;-55
2021/06/06 06:40:57;;;;;;;;;;;;;;;31.64;24.72;94586.13;5117041;28;19920;-52
2021/06/06 06:43:24;;;;;;;;;;;;;;;32.04;24.40;94578.78;5090592;28;19931;-53
2021/06/06 06:45:51;;;;;;;;;;;;;;;32.04;25.31;94578.78;5114149;28;19916;-53
2021/06/06 06:48:19;;;;;;;;;;;;;;;32.12;23.72;94584.78;5110451;28;19916;-53
2021/06/06 06:50:46;;;;;;;;;;;;;;;32.02;24.63;94580.38;5093963;28;19915;-53
2021/06/06 06:53:14;;;;;;;;;;;;;;;32.20;24.22;94594.25;5113722;28;19920;-56
2021/06/06 06:55:42;;;;;;;;;;;;;;;33.13;23.13;94590.22;5114253;28;19920;-52
2021/06/06 06:58:09;;;;;;;;;;;;;;;32.48;22.98;94584.78;5113443;28;19931;-53
2021/06/06 07:00:38;;;;;;;;;;;;;;;33.34;22.58;94586.22;5114005;28;19920;-54
2021/06/06 07:03:09;;;;;;;;;;;;;;;32.79;22.52;94577.91;5117668;28;19920;-58
2021/06/06 07:05:36;;;;;;;;;;;;;;;33.39;22.37;94574.88;5113916;28;19916;-54
2021/06/06 07:08:05;;;;;;;;;;;;;;;32.98;22.80;94586.34;5116823;28;19916;-53
2021/06/06 07:10:32;;;;;;;;;;;;;;;33.56;22.52;94589.88;5107444;28;19928;-53
2021/06/06 07:12:59;;;;;;;;;;;;;;;34.61;21.65;94579.13;5113245;28;20341;-54
2021/06/06 07:15:27;;;;;;;;;;;;;;;34.26;21.80;94586.34;5116303;28;19916;-53
2021/06/06 07:17:54;;;;;;;;;;;;;;;33.87;21.61;94573.19;5115705;28;19916;-53
2021/06/06 07:20:23;;;;;;;;;;;;;;;34.83;21.62;94590.03;5116460;28;20221;-52
2021/06/06 07:22:50;;;;;;;;;;;;;;;34.12;22.09;94586.78;5113992;28;19919;-52
2021/06/06 07:25:18;;;;;;;;;;;;;;;34.99;21.44;94580.25;5113530;28;19922;-52
2021/06/06 07:27:45;;;;;;;;;;;;;;;34.51;21.52;94584.88;5115094;28;19916;-52
2021/06/06 07:30:14;;;;;;;;;;;;;;;34.82;20.74;94593.19;5115979;28;19923;-52
2021/06/06 07:32:41;;;;;;;;;;;;;;;33.32;22.06;94583.19;5096302;28;19920;-55
2021/06/06 07:35:09;;;;;;;;;;;;;;;34.89;21.35;94582.16;5113089;28;20257;-59
2021/06/06 07:37:36;;;;;;;;;;;;;;;34.27;21.37;94582.44;5113016;27;19919;-56
2021/06/06 07:40:05;;;;;;;;;;;;;;;34.73;20.88;94576.81;5116164;27;19928;-53
2021/06/06 07:42:33;;;;;;;;;;;;;;;35.44;20.22;94583.41;5116784;28;19934;-59
2021/06/06 07:45:05;;;;;;;;;;;;;;;35.81;19.92;94580.94;5094412;28;19931;-56
2021/06/06 07:47:33;;;;;;;;;;;;;;;35.10;20.70;94586.84;5117103;28;19935;-51
2021/06/06 07:50:00;;;;;;;;;;;;;;;34.44;21.15;94585.09;5117079;28;19920;-53
2021/06/06 07:52:28;;;;;;;;;;;;;;;35.70;19.87;94588.72;5112911;28;19916;-58
2021/06/06 07:54:56;;;;;;;;;;;;;;;35.21;20.74;94581.06;5116891;28;19950;-54
2021/06/06 07:57:24;;;;;;;;;;;;;;;36.01;19.08;94570.50;5116024;28;19916;-57
2021/06/06 07:59:51;;;;;;;;;;;;;;;36.09;20.32;94571.75;5116743;28;19923;-54
2021/06/06 08:02:17;;;;;;;;;;;;;;;35.45;20.96;94568.63;5112359;28;19924;-53
2021/06/06 08:04:45;;;;;;;;;;;;;;;36.04;19.35;94574.31;5116351;28;20250;-54
2021/06/06 08:07:11;;;;;;;;;;;;;;;35.74;20.00;94579.25;5116806;28;19919;-52
2021/06/06 08:09:38;;;;;;;;;;;;;;;36.06;19.57;94567.22;5112534;28;19923;-56
2021/06/06 08:12:06;;;;;;;;;;;;;;;36.58;20.86;94562.91;5116433;28;19915;-57
2021/06/06 08:14:33;;;;;;;;;;;;;;;37.08;19.10;94555.47;5116256;28;19916;-56
2021/06/06 08:17:00;;;;;;;;;;;;;;;36.72;20.18;94554.19;5115787;28;20319;-57
2021/06/06 08:19:27;;;;;;;;;;;;;;;36.93;19.84;94560.72;5116422;28;19923;-68
2021/06/06 08:21:53;;;;;;;;;;;;;;;36.31;20.60;94554.66;5116214;28;19920;-57
2021/06/06 08:24:20;;;;;;;;;;;;;;;36.28;21.03;94560.97;5115131;28;20246;-54
2021/06/06 08:26:52;;;;;;;;;;;;;;;35.90;19.77;94548.38;5115235;28;19931;-65
2021/06/06 08:29:20;;;;;;;;;;;;;;;36.41;19.96;94553.47;5116109;28;19919;-57
2021/06/06 08:31:49;;;;;;;;;;;;;;;36.67;20.13;94552.03;5116169;28;19920;-52
2021/06/06 08:34:16;;;;;;;;;;;;;;;36.55;19.14;94541.28;5116079;28;19916;-66
2021/06/06 08:36:46;;;;;;;;;;;;;;;37.16;19.09;94532.16;5115652;28;19946;-60
2021/06/06 08:39:21;;;;;;;;;;;;;;;37.84;18.58;94535.47;5097579;28;20249;-53
2021/06/06 08:41:52;;;;;;;;;;;;;;;37.41;19.22;94535.81;5109170;28;20337;-54
2021/06/06 08:44:25;;;;;;;;;;;;;;;37.29;18.04;94532.78;5113576;28;19986;-62
2021/06/06 08:46:57;;;;;;;;;;;;;;;37.28;18.44;94535.97;5113711;28;20231;-56
2021/06/06 08:49:26;;;;;;;;;;;;;;;37.02;18.03;94535.47;5108113;28;20242;-54
2021/06/06 08:51:58;;;;;;;;;;;;;;;37.45;18.70;94533.69;5090044;28;19927;-58
2021/06/06 08:54:25;;;;;;;;;;;;;;;37.61;18.46;94530.63;5090425;28;20336;-55
2021/06/06 08:56:56;;;;;;;;;;;;;;;37.60;17.41;94529.88;5114594;28;19920;-61
2021/06/06 08:59:27;;;;;;;;;;;;;;;37.64;18.67;94530.47;5114838;28;19926;-65
2021/06/06 09:01:56;;;;;;;;;;;;;;;37.53;17.52;94524.00;5112146;28;19920;-58
2021/06/06 09:04:25;;;;;;;;;;;;;;;37.16;17.75;94518.53;5115468;28;19920;-54
2021/06/06 09:06:54;;;;;;;;;;;;;;;37.86;17.16;94524.09;5115619;28;19931;-49
2021/06/06 09:09:23;;;;;;;;;;;;;;;38.06;17.52;94513.44;5114693;28;19924;-50
2021/06/06 09:11:50;;;;;;;;;;;;;;;37.81;17.89;94506.38;5114751;28;19915;-54
2021/06/06 09:14:17;;;;;;;;;;;;;;;37.48;17.92;94510.97;5114936;28;20230;-53
2021/06/06 09:16:58;;;;;;;;;;;;;;;37.34;18.78;94510.38;5114997;28;20310;-62
2021/06/06 09:19:25;;;;;;;;;;;;;;;38.41;16.66;94508.28;5113888;28;19922;-58
2021/06/06 09:21:52;;;;;;;;;;;;;;;38.25;16.99;94517.59;5096653;28;19923;-54
2021/06/06 09:24:42;;;;;;;;;;;;;;;38.00;17.70;94509.03;5114903;28;19947;-51
2021/06/06 09:27:10;;;;;;;;;;;;;;;37.24;18.71;94508.09;5115095;28;20318;-55
2021/06/06 09:29:37;;;;;;;;;;;;;;;38.12;17.64;94503.38;5114761;28;19932;-54
2021/06/06 09:32:05;;;;;;;;;;;;;;;37.94;17.74;94493.28;5110665;28;19927;-59
2021/06/06 09:34:32;;;;;;;;;;;;;;;37.95;17.22;94500.25;5114381;28;19993;-53
2021/06/06 09:37:01;;;;;;;;;;;;;;;37.72;17.74;94492.00;5097086;28;19926;-56
2021/06/06 09:39:29;;;;;;;;;;;;;;;37.81;17.28;94500.16;5114030;28;19919;-53
2021/06/06 09:41:57;;;;;;;;;;;;;;;38.35;16.79;94488.28;5094320;28;19928;-58
2021/06/06 09:44:27;;;;;;;;;;;;;;;38.34;16.72;94497.72;5110147;28;19919;-63
2021/06/06 09:47:11;;;;;;;;;;;;;;;37.25;18.51;94483.13;5114897;28;19942;-56
2021/06/06 09:49:59;;;;;;;;;;;;;;;38.14;17.40;94489.28;5113535;28;20276;-57
2021/06/06 09:52:26;;;;;;;;;;;;;;;37.96;17.52;94479.19;5105205;28;19923;-53
2021/06/06 09:54:55;;;;;;;;;;;;;;;37.12;18.44;94485.22;5112109;28;20223;-57
2021/06/06 09:57:24;;;;;;;;;;;;;;;37.13;18.04;94481.28;5112705;28;19923;-58
2021/06/06 09:59:51;;;;;;;;;;;;;;;37.28;17.90;94473.28;5112352;28;19947;-54
2021/06/06 10:02:29;;;;;;;;;;;;;;;37.45;17.91;94474.47;5110122;28;19920;-56
2021/06/06 10:05:25;;;;;;;;;;;;;;;38.02;17.75;94471.91;5095365;28;19924;-54
2021/06/06 10:07:55;;;;;;;;;;;;;;;38.31;16.41;94476.81;5070672;28;20334;-55
2021/06/06 10:10:42;;;;;;;;;;;;;;;37.53;17.70;94464.75;5054253;28;19924;-57
2021/06/06 10:13:32;;;;;;;;;;;;;;;36.99;19.01;94465.56;5066269;28;19916;-51
2021/06/06 10:16:08;;;;;;;;;;;;;;;37.95;17.78;94462.06;5031313;28;19948;-51
2021/06/06 10:18:38;;;;;;;;;;;;;;;37.32;17.55;94466.47;4998435;28;19921;-54
2021/06/06 10:21:08;;;;;;;;;;;;;;;37.47;18.46;94450.22;5031475;28;19925;-53
2021/06/06 10:23:45;;;;;;;;;;;;;;;37.94;18.12;94460.56;5029484;28;20272;-55
2021/06/06 10:26:41;;;;;;;;;;;;;;;36.88;18.69;94452.38;5029741;28;20312;-54
2021/06/06 10:29:27;;;;;;;;;;;;;;;36.89;18.09;94456.63;5026348;28;19924;-54
2021/06/06 10:31:55;;;;;;;;;;;;;;;36.41;19.13;94460.94;5029735;28;19924;-53
2021/06/06 10:34:28;;;;;;;;;;;;;;;37.26;18.67;94460.13;5029963;28;19921;-53
2021/06/06 10:36:54;;;;;;;;;;;;;;;37.32;18.97;94455.56;5031599;28;19917;-56
2021/06/06 10:39:26;;;;;;;;;;;;;;;37.17;18.82;94453.88;5057539;28;19924;-55
2021/06/06 10:41:55;;;;;;;;;;;;;;;37.08;18.11;94457.38;5054418;28;19924;-55
2021/06/06 10:44:32;;;;;;;;;;;;;;;36.54;17.20;94444.47;5054369;28;19916;-53
2021/06/06 10:47:01;;;;;;;;;;;;;;;36.32;17.68;94442.63;5074428;28;20310;-52
2021/06/06 10:49:31;;;;;;;;;;;;;;;37.37;18.11;94440.56;5096041;28;19916;-53
2021/06/06 10:52:00;;;;;;;;;;;;;;;37.24;17.62;94438.00;5113068;28;19934;-56
2021/06/06 10:54:42;;;;;;;;;;;;;;;36.22;18.20;94434.88;5111065;28;20234;-53
2021/06/06 10:57:10;;;;;;;;;;;;;;;36.84;17.86;94429.25;5096188;28;20242;-53
2021/06/06 10:59:45;;;;;;;;;;;;;;;37.06;18.34;94435.28;5113936;28;19928;-59
2021/06/06 11:02:33;;;;;;;;;;;;;;;37.08;17.43;94424.69;5113610;28;19920;-53
2021/06/06 11:05:20;;;;;;;;;;;;;;;37.41;18.08;94427.53;5103502;28;19916;-53
2021/06/06 11:07:47;;;;;;;;;;;;;;;37.99;16.84;94429.16;5116294;28;20219;-59
2021/06/06 11:10:18;;;;;;;;;;;;;;;37.64;17.26;94420.63;5114858;28;20234;-53
2021/06/06 11:12:46;;;;;;;;;;;;;;;37.61;16.96;94418.84;5117350;28;20218;-53
2021/06/06 11:15:33;;;;;;;;;;;;;;;37.29;17.48;94418.31;5117532;28;20238;-52
2021/06/06 11:18:06;;;;;;;;;;;;;;;37.69;17.79;94419.25;5117299;28;19916;-53
2021/06/06 11:20:34;;;;;;;;;;;;;;;38.22;16.43;94424.97;5117626;28;19931;-53
2021/06/06 11:23:10;;;;;;;;;;;;;;;37.35;16.91;94421.94;5117483;28;20261;-61
2021/06/06 11:25:39;;;;;;;;;;;;;;;37.97;16.95;94415.97;5099409;28;19927;-52
2021/06/06 11:28:09;;;;;;;;;;;;;;;38.22;16.40;94419.50;5114240;28;19930;-54
2021/06/06 11:30:38;;;;;;;;;;;;;;;38.15;15.95;94420.59;5099260;28;20230;-53
2021/06/06 11:33:07;;;;;;;;;;;;;;;37.57;16.01;94401.88;5116322;28;20211;-55
2021/06/06 11:35:35;;;;;;;;;;;;;;;36.81;16.60;94409.13;5116365;28;19924;-52
2021/06/06 11:38:20;;;;;;;;;;;;;;;37.98;16.33;94411.28;5117276;28;19920;-53
2021/06/06 11:40:48;;;;;;;;;;;;;;;37.34;16.21;94403.31;5116671;28;19924;-53
2021/06/06 11:43:29;;;;;;;;;;;;;;;37.63;16.58;94408.22;5102107;28;19991;-53
2021/06/06 11:46:16;;;;;;;;;;;;;;;38.33;15.87;94408.84;5098411;28;19922;-53
2021/06/06 11:48:56;;;;;;;;;;;;;;;37.86;16.55;94404.81;5116428;28;20302;-49
2021/06/06 11:51:31;;;;;;;;;;;;;;;37.84;16.12;94401.81;5099927;28;19927;-49
2021/06/06 11:53:58;;;;;;;;;;;;;;;37.24;17.08;94393.63;5094532;28;19916;-52
2021/06/06 11:56:28;;;;;;;;;;;;;;;37.83;16.78;94397.56;5114223;28;19915;-52
2021/06/06 11:59:06;;;;;;;;;;;;;;;37.95;16.93;94395.84;5113779;28;19916;-49
2021/06/06 12:01:33;;;;;;;;;;;;;;;37.90;16.34;94393.75;5115747;28;19924;-55
2021/06/06 12:04:09;;;;;;;;;;;;;;;38.25;15.52;94391.28;5113666;28;19916;-58
2021/06/06 12:06:36;;;;;;;;;;;;;;;37.64;16.42;94383.22;5094295;28;19916;-53
2021/06/06 12:09:20;;;;;;;;;;;;;;;37.45;16.42;94384.50;5114238;28;20234;-54
2021/06/06 12:11:47;;;;;;;;;;;;;;;37.55;16.61;94390.69;5113467;28;19915;-62
2021/06/06 12:14:17;;;;;;;;;;;;;;;37.18;16.18;94379.09;5097772;28;20329;-48
2021/06/06 12:16:49;;;;;;;;;;;;;;;37.65;15.67;94376.56;5116250;28;19923;-66
2021/06/06 12:19:18;;;;;;;;;;;;;;;37.30;16.76;94376.22;5116117;28;20307;-52
2021/06/06 12:21:46;;;;;;;;;;;;;;;37.23;16.18;94368.34;5115922;28;20223;-54
2021/06/06 12:24:18;;;;;;;;;;;;;;;37.63;15.76;94375.50;5111448;28;19915;-60
2021/06/06 12:26:45;;;;;;;;;;;;;;;37.93;15.32;94371.75;5114265;28;20329;-52
2021/06/06 12:29:12;;;;;;;;;;;;;;;37.13;14.72;94360.66;5116019;28;19923;-51
2021/06/06 12:31:41;;;;;;;;;;;;;;;38.20;13.80;94361.91;5115818;28;19920;-53
2021/06/06 12:34:09;;;;;;;;;;;;;;;37.45;15.12;94354.50;5115811;28;19924;-51
2021/06/06 12:36:37;;;;;;;;;;;;;;;37.45;15.50;94351.03;5115344;28;20253;-54
2021/06/06 12:39:04;;;;;;;;;;;;;;;36.62;15.88;94351.16;5115374;28;20334;-60
2021/06/06 12:41:33;;;;;;;;;;;;;;;37.53;15.69;94346.78;5114870;28;19923;-53
2021/06/06 12:44:00;;;;;;;;;;;;;;;37.81;15.88;94350.91;5114034;28;19923;-57
2021/06/06 12:46:27;;;;;;;;;;;;;;;37.43;15.17;94350.75;5114673;28;19923;-53
2021/06/06 12:49:03;;;;;;;;;;;;;;;37.29;14.86;94347.47;5115509;28;19920;-53
2021/06/06 12:51:37;;;;;;;;;;;;;;;37.02;14.64;94339.34;5115692;28;19922;-55
2021/06/06 12:54:21;;;;;;;;;;;;;;;37.24;15.82;94345.34;5111055;28;19920;-55
2021/06/06 12:56:48;;;;;;;;;;;;;;;37.91;14.15;94352.34;5061086;28;19943;-61
2021/06/06 12:59:19;;;;;;;;;;;;;;;37.71;13.82;94337.75;5113511;28;19919;-58
2021/06/06 13:01:47;;;;;;;;;;;;;;;37.12;13.73;94340.81;5114541;28;19919;-53
2021/06/06 13:04:23;;;;;;;;;;;;;;;36.93;14.08;94339.34;5112807;28;19955;-52
2021/06/06 13:06:50;;;;;;;;;;;;;;;37.89;14.06;94341.16;5114943;28;19927;-55